Amherst, Wisconsin
Current Conditions -  °F | °C
As of 4:15 PM on Sunday 25 Jan 2015 (Local Time) from KSTE Reporting Station
Scattered Clouds Scattered Clouds  
Wind Chill: 18°   Ceiling: Unl
Heat Index: 18°   Visibility: 10mi
Dew Point:   Wind: 3mph
Humidity: 55%   Direction: 120°ESE
Pressure: 30.03"   Gusts: NA
Location:  44.45°N, 89.28°W
Report Text: KSTE 252215Z AUTO 12003KT 10SM SCT120 M08/M15 A3003 RMK AO2 T10761153
Loading
Personal Weather Stations






























Interactive Weather Map New forecast layout! Learn more

10-Day Weather Forecast

Advertisements
Track Severe Weather on mobile